Time;durP1;ratioP1;P1;durP2;ratioP2;P2;SDS_P1;SDS_P2;PMS_P1;PMS_P2;Temp;Humidity;BMP_temperature;BMP_pressure;BME280_temperature;BME280_humidity;BME280_pressure;Samples;Min_cycle;Max_cycle;Signal;HPM_P1;HPM_P2
2022/03/12 00:00:26;;;;;;;;;;;;;;;;;;;;;
2022/03/12 00:02:54;;;;;;;;;;;;;;;20.35;27.75;102295.70;104513;1309;75315;-82
2022/03/12 00:11:56;;;;;;;;;;;;;;;;;;;;;
2022/03/12 00:14:43;;;;;;;;;;;;;;;20.36;27.80;102290.48;104141;1314;74896;-82
2022/03/12 00:17:18;;;;;;;;;;;;;;;20.36;28.00;102287.09;104197;1312;62013;-83
2022/03/12 00:20:00;;;;;;;;;;;;;;;20.36;27.92;102285.65;104219;1314;62189;-87
2022/03/12 00:22:28;;;;;;;;;;;;;;;20.37;27.83;102292.23;104191;1314;72829;-81
2022/03/12 00:25:54;;;;;;;;;;;;;;;20.36;27.92;102287.98;104120;1314;75518;-85
2022/03/12 00:28:35;;;;;;;;;;;;;;;20.36;28.13;102286.91;104124;1317;62123;-88
2022/03/12 00:31:11;;;;;;;;;;;;;;;20.36;27.92;102287.62;104190;1314;62100;-84
2022/03/12 00:33:59;;;;;;;;;;;;;;;20.37;27.79;102283.29;103825;1314;72842;-85
2022/03/12 00:36:47;;;;;;;;;;;;;;;20.37;28.02;102280.78;103719;1317;75606;-83
2022/03/12 00:39:49;;;;;;;;;;;;;;;20.37;27.92;102283.10;104195;1314;63607;-85
2022/03/12 00:42:35;;;;;;;;;;;;;;;20.37;27.93;102280.23;104186;1314;62166;-84
2022/03/12 00:45:31;;;;;;;;;;;;;;;20.37;27.87;102279.16;104172;1314;72160;-83
2022/03/12 00:48:20;;;;;;;;;;;;;;;20.38;27.94;102275.56;104014;1317;76193;-83
2022/03/12 00:51:03;;;;;;;;;;;;;;;20.38;28.14;102270.19;104086;1317;62755;-87
2022/03/12 00:53:48;;;;;;;;;;;;;;;20.38;27.95;102270.92;104111;1317;62148;-84
2022/03/12 00:56:37;;;;;;;;;;;;;;;20.37;28.10;102269.68;103867;1317;72845;-84
2022/03/12 00:59:33;;;;;;;;;;;;;;;20.37;28.06;102267.16;103822;1317;75334;-83
2022/03/12 01:02:22;;;;;;;;;;;;;;;20.38;28.01;102266.06;104125;1317;62244;-82
2022/03/12 01:05:07;;;;;;;;;;;;;;;20.38;28.02;102264.47;104061;1317;62101;-82
2022/03/12 01:07:50;;;;;;;;;;;;;;;20.39;28.06;102265.34;104109;1316;73655;-83
2022/03/12 01:10:28;;;;;;;;;;;;;;;;;;;;;
2022/03/12 01:12:57;;;;;;;;;;;;;;;20.39;28.04;102263.17;104019;1317;62056;-84
2022/03/12 01:16:11;;;;;;;;;;;;;;;20.39;27.97;102263.70;104086;1317;61963;-83
2022/03/12 01:18:54;;;;;;;;;;;;;;;20.39;27.96;102259.95;104084;1317;73335;-85
2022/03/12 01:21:45;;;;;;;;;;;;;;;20.39;28.05;102260.46;103611;1320;74337;-82
2022/03/12 01:24:13;;;;;;;;;;;;;;;20.39;28.05;102263.33;103516;1320;62059;-85
2022/03/12 01:30:28;;;;;;;;;;;;;;;20.39;28.09;102259.23;102509;1332;73321;-83
2022/03/12 01:33:10;;;;;;;;;;;;;;;20.39;28.10;102257.64;102481;1332;76717;-83
2022/03/12 01:36:13;;;;;;;;;;;;;;;20.40;28.13;102257.77;102466;1332;62156;-83
2022/03/12 01:39:05;;;;;;;;;;;;;;;20.39;28.16;102260.83;102514;1332;62231;-87
2022/03/12 01:41:42;;;;;;;;;;;;;;;20.40;28.18;102260.10;102497;1332;74340;-82
2022/03/12 01:44:37;;;;;;;;;;;;;;;20.40;28.17;102265.43;102473;1332;75476;-83
2022/03/12 01:47:32;;;;;;;;;;;;;;;20.41;28.12;102267.73;102537;1331;61989;-84
2022/03/12 01:50:02;;;;;;;;;;;;;;;20.41;28.14;102268.63;102526;1332;62030;-82
2022/03/12 01:53:08;;;;;;;;;;;;;;;20.42;28.15;102267.17;102436;1332;71487;-83
2022/03/12 01:55:56;;;;;;;;;;;;;;;20.42;28.14;102269.85;102512;1333;76849;-84
2022/03/12 01:58:43;;;;;;;;;;;;;;;20.42;28.13;102273.77;102548;1329;62138;-84
2022/03/12 02:01:25;;;;;;;;;;;;;;;;;;;;;
2022/03/12 02:04:11;;;;;;;;;;;;;;;20.41;28.21;102274.51;102634;1329;72880;-86
2022/03/12 02:07:00;;;;;;;;;;;;;;;20.41;28.15;102275.40;102542;1321;76535;-85
2022/03/12 02:09:46;;;;;;;;;;;;;;;20.42;28.17;102271.45;103645;1321;62032;-83
2022/03/12 02:12:23;;;;;;;;;;;;;;;20.42;28.17;102270.38;103611;1321;62123;-84
2022/03/12 02:15:16;;;;;;;;;;;;;;;20.42;28.04;102272.85;103622;1319;72960;-84
2022/03/12 02:18:03;;;;;;;;;;;;;;;20.42;28.12;102273.59;102926;1325;76593;-86
2022/03/12 02:20:50;;;;;;;;;;;;;;;20.42;28.28;102276.44;102930;1326;62030;-83
2022/03/12 02:23:25;;;;;;;;;;;;;;;20.42;28.32;102273.20;102984;1327;62249;-83
2022/03/12 02:25:53;;;;;;;;;;;;;;;20.43;28.14;102273.54;102803;1325;72468;-84
2022/03/12 02:28:59;;;;;;;;;;;;;;;20.42;28.19;102270.36;102489;1331;77006;-85
2022/03/12 02:31:43;;;;;;;;;;;;;;;20.42;28.24;102272.31;102538;1332;62235;-82
2022/03/12 02:34:22;;;;;;;;;;;;;;;20.43;28.26;102272.84;102477;1332;62095;-88
2022/03/12 02:37:09;;;;;;;;;;;;;;;20.42;28.21;102275.17;102485;1332;72838;-84
2022/03/12 02:39:47;;;;;;;;;;;;;;;;;;;;;
2022/03/12 02:42:33;;;;;;;;;;;;;;;20.43;28.20;102273.73;102479;1332;62098;-81
2022/03/12 02:45:08;;;;;;;;;;;;;;;20.43;28.30;102273.54;102545;1332;62075;-83
2022/03/12 02:48:03;;;;;;;;;;;;;;;20.43;28.21;102272.10;102498;1331;72802;-84
2022/03/12 02:50:38;;;;;;;;;;;;;;;;;;;;;
2022/03/12 02:53:30;;;;;;;;;;;;;;;20.43;28.26;102273.52;102482;1332;62237;-81
2022/03/12 02:56:01;;;;;;;;;;;;;;;20.44;28.18;102276.00;102662;1326;62100;-84
2022/03/12 02:58:29;;;;;;;;;;;;;;;20.44;28.29;102275.44;102735;1325;72786;-84
2022/03/12 03:01:14;;;;;;;;;;;;;;;20.44;28.24;102277.06;102777;1326;76002;-88
2022/03/12 03:04:11;;;;;;;;;;;;;;;20.44;28.24;102279.23;102778;1325;62098;-88
2022/03/12 03:06:38;;;;;;;;;;;;;;;20.44;28.15;102277.08;103334;1320;62139;-79
2022/03/12 03:09:28;;;;;;;;;;;;;;;;;;;;;
2022/03/12 03:12:12;;;;;;;;;;;;;;;20.44;28.19;102277.77;103644;1319;75854;-86
2022/03/12 03:14:50;;;;;;;;;;;;;;;20.44;28.22;102281.54;103639;1319;62239;-86
2022/03/12 03:17:27;;;;;;;;;;;;;;;20.44;28.28;102287.62;103370;1320;62702;-84
2022/03/12 03:20:06;;;;;;;;;;;;;;;20.44;28.32;102287.96;103645;1318;73890;-84
2022/03/12 03:22:50;;;;;;;;;;;;;;;20.44;28.32;102295.48;103613;1319;75680;-83
2022/03/12 03:25:38;;;;;;;;;;;;;;;20.44;28.34;102294.23;103384;1320;62242;-83
2022/03/12 03:28:28;;;;;;;;;;;;;;;20.44;28.32;102295.30;103009;1325;62152;-84
2022/03/12 03:31:29;;;;;;;;;;;;;;;;;;;;;
2022/03/12 03:34:03;;;;;;;;;;;;;;;20.45;28.30;102288.84;102944;1325;75567;-84
2022/03/12 03:36:58;;;;;;;;;;;;;;;20.46;28.43;102287.55;102968;1326;62224;-84
2022/03/12 03:39:45;;;;;;;;;;;;;;;;;;;;;
2022/03/12 03:43:08;;;;;;;;;;;;;;;20.46;28.32;102294.69;102957;1325;72749;-83
2022/03/12 03:45:27;;;;;;;;;;;;;;;20.46;28.36;102289.31;103028;1320;75791;-83
2022/03/12 03:47:59;;;;;;;;;;;;;;;20.46;28.29;102289.84;103519;1319;62206;-80
2022/03/12 03:50:29;;;;;;;;;;;;;;;20.46;28.38;102288.45;103215;1322;62015;-82
2022/03/12 03:53:37;;;;;;;;;;;;;;;20.46;28.33;102292.36;102843;1325;71592;-85
2022/03/12 03:56:05;;;;;;;;;;;;;;;20.46;28.29;102291.63;102939;1324;75642;-82
2022/03/12 03:58:37;;;;;;;;;;;;;;;20.46;28.61;102290.92;102906;1324;62265;-84
2022/03/12 04:02:01;;;;;;;;;;;;;;;20.46;28.34;102293.07;103059;1323;62112;-83
2022/03/12 04:04:21;;;;;;;;;;;;;;;20.46;28.44;102294.33;102906;1326;73079;-83
2022/03/12 04:07:12;;;;;;;;;;;;;;;20.45;28.33;102301.33;103551;1319;76703;-85
2022/03/12 04:09:55;;;;;;;;;;;;;;;20.46;28.44;102299.73;103615;1318;62244;-82
2022/03/12 04:12:58;;;;;;;;;;;;;;;20.46;28.36;102302.75;103410;1319;61980;-85
2022/03/12 04:15:38;;;;;;;;;;;;;;;;;;;;;
2022/03/12 04:18:35;;;;;;;;;;;;;;;20.46;28.50;102306.66;103419;1319;74868;-83
2022/03/12 04:21:21;;;;;;;;;;;;;;;20.47;28.46;102305.55;103414;1319;62233;-86
2022/03/12 04:23:56;;;;;;;;;;;;;;;;;;;;;
2022/03/12 04:26:40;;;;;;;;;;;;;;;20.48;28.46;102323.23;103401;1319;73860;-84
2022/03/12 04:29:36;;;;;;;;;;;;;;;20.48;28.31;102323.76;103606;1319;76809;-83
2022/03/12 04:32:21;;;;;;;;;;;;;;;20.48;28.38;102321.07;104083;1314;62107;-83
2022/03/12 04:35:09;;;;;;;;;;;;;;;;;;;;;
2022/03/12 04:37:37;;;;;;;;;;;;;;;20.48;28.36;102323.39;104200;1314;72723;-83
2022/03/12 04:40:21;;;;;;;;;;;;;;;;;;;;;
2022/03/12 04:43:02;;;;;;;;;;;;;;;20.48;28.50;102327.50;104138;1315;61892;-83
2022/03/12 04:45:39;;;;;;;;;;;;;;;20.48;28.37;102327.69;104311;1315;62079;-82
2022/03/12 04:48:07;;;;;;;;;;;;;;;20.48;28.27;102328.41;104182;1315;73898;-83
2022/03/12 04:51:15;;;;;;;;;;;;;;;20.48;28.52;102336.45;104272;1314;75525;-83
2022/03/12 04:54:07;;;;;;;;;;;;;;;20.48;28.34;102340.37;104295;1315;62131;-82
2022/03/12 04:56:53;;;;;;;;;;;;;;;20.49;28.32;102333.90;104286;1314;62015;-81
2022/03/12 04:59:56;;;;;;;;;;;;;;;;;;;;;
2022/03/12 05:02:45;;;;;;;;;;;;;;;20.50;28.61;102329.73;103293;1320;76733;-87
2022/03/12 05:05:15;;;;;;;;;;;;;;;20.50;28.49;102332.95;103423;1319;61857;-87
2022/03/12 05:08:23;;;;;;;;;;;;;;;20.51;28.62;102332.39;103243;1320;61989;-86
2022/03/12 05:11:09;;;;;;;;;;;;;;;20.52;28.67;102337.54;103427;1320;73792;-81
2022/03/12 05:14:04;;;;;;;;;;;;;;;20.53;28.54;102341.08;102964;1325;75503;-82
2022/03/12 05:16:44;;;;;;;;;;;;;;;;;;;;;
2022/03/12 05:19:24;;;;;;;;;;;;;;;20.54;28.53;102346.39;102937;1325;61968;-84
2022/03/12 05:21:52;;;;;;;;;;;;;;;20.54;28.58;102347.25;102885;1324;62266;-84
2022/03/12 05:24:51;;;;;;;;;;;;;;;;;;;;;
2022/03/12 05:27:36;;;;;;;;;;;;;;;20.54;28.55;102349.77;102546;1329;62206;-88
2022/03/12 05:30:23;;;;;;;;;;;;;;;20.54;28.52;102348.15;102711;1326;62333;-79
2022/03/12 05:32:59;;;;;;;;;;;;;;;20.54;28.59;102343.67;102753;1326;73020;-83
2022/03/12 05:35:44;;;;;;;;;;;;;;;;;;;;;
2022/03/12 05:38:48;;;;;;;;;;;;;;;20.55;28.56;102340.06;102789;1326;62095;-82
2022/03/12 05:41:26;;;;;;;;;;;;;;;20.55;28.56;102343.99;103437;1320;62218;-85
2022/03/12 05:44:14;;;;;;;;;;;;;;;20.55;28.60;102347.04;103323;1322;72694;-86
2022/03/12 05:47:00;;;;;;;;;;;;;;;20.56;28.59;102345.20;103354;1320;76963;-85
2022/03/12 05:49:49;;;;;;;;;;;;;;;20.57;28.50;102346.05;103379;1320;61997;-83
2022/03/12 05:52:32;;;;;;;;;;;;;;;20.57;28.56;102348.38;104051;1314;62147;-83
2022/03/12 05:55:08;;;;;;;;;;;;;;;20.57;28.59;102348.04;104141;1314;72857;-83
2022/03/12 05:57:53;;;;;;;;;;;;;;;20.57;28.60;102346.23;104100;1314;76764;-80
2022/03/12 06:00:22;;;;;;;;;;;;;;;20.57;28.47;102349.44;104209;1315;62080;-83
2022/03/12 06:03:03;;;;;;;;;;;;;;;20.58;28.43;102354.06;104529;1309;61977;-84
2022/03/12 06:05:41;;;;;;;;;;;;;;;20.57;28.42;102356.78;104496;1310;72846;-83
2022/03/12 06:08:21;;;;;;;;;;;;;;;20.57;28.58;102363.04;104431;1308;76576;-81
2022/03/12 06:11:05;;;;;;;;;;;;;;;;;;;;;
2022/03/12 06:13:52;;;;;;;;;;;;;;;;;;;;;
2022/03/12 06:16:48;;;;;;;;;;;;;;;20.58;28.44;102374.62;104606;1309;72860;-84
2022/03/12 06:19:25;;;;;;;;;;;;;;;20.58;28.54;102368.00;104636;1308;76490;-83
2022/03/12 06:22:15;;;;;;;;;;;;;;;20.58;28.57;102370.31;104524;1308;62181;-87
2022/03/12 06:25:04;;;;;;;;;;;;;;;20.58;28.56;102367.11;104629;1309;62090;-84
2022/03/12 06:27:54;;;;;;;;;;;;;;;20.59;28.47;102362.98;104637;1309;72904;-82
2022/03/12 06:30:42;;;;;;;;;;;;;;;20.59;28.71;102369.39;104647;1309;76725;-84
2022/03/12 06:33:32;;;;;;;;;;;;;;;20.59;28.48;102369.02;104573;1308;61990;-83
2022/03/12 06:36:15;;;;;;;;;;;;;;;20.59;28.66;102379.41;104463;1309;62056;-83
2022/03/12 06:38:54;;;;;;;;;;;;;;;;;;;;;
2022/03/12 06:41:47;;;;;;;;;;;;;;;20.59;28.57;102379.21;104531;1309;76009;-88
2022/03/12 06:44:32;;;;;;;;;;;;;;;20.60;28.61;102378.48;104649;1309;61943;-85
2022/03/12 06:47:10;;;;;;;;;;;;;;;20.60;28.44;102389.38;100668;1309;5383595;-83
2022/03/12 06:49:49;;;;;;;;;;;;;;;20.60;28.61;102385.80;104254;1314;61994;-84
2022/03/12 06:52:52;;;;;;;;;;;;;;;;;;;;;
2022/03/12 06:55:37;;;;;;;;;;;;;;;20.60;28.61;102387.42;104292;1315;75636;-83
2022/03/12 06:58:17;;;;;;;;;;;;;;;20.60;28.57;102392.06;104277;1315;62289;-87
2022/03/12 07:00:56;;;;;;;;;;;;;;;20.61;28.52;102389.17;104249;1315;61998;-84
2022/03/12 07:03:45;;;;;;;;;;;;;;;20.61;28.57;102388.28;104276;1314;71360;-84
2022/03/12 07:06:13;;;;;;;;;;;;;;;20.62;28.55;102389.86;104204;1315;76569;-83
2022/03/12 07:08:41;;;;;;;;;;;;;;;20.63;28.69;102391.79;104196;1315;62004;-82
2022/03/12 07:11:32;;;;;;;;;;;;;;;20.63;28.64;102389.98;104271;1315;62131;-83
2022/03/12 07:14:23;;;;;;;;;;;;;;;20.63;28.65;102388.92;104205;1315;74388;-81
2022/03/12 07:17:11;;;;;;;;;;;;;;;20.63;28.70;102386.42;104259;1315;77097;-84
2022/03/12 07:22:39;;;;;;;;;;;;;;;20.64;28.75;102386.72;103421;1320;61955;-83
2022/03/12 07:25:07;;;;;;;;;;;;;;;20.64;28.70;102388.36;103389;1320;72769;-86
2022/03/12 07:28:05;;;;;;;;;;;;;;;20.64;28.65;102393.70;103879;1314;76758;-83
2022/03/12 07:30:40;;;;;;;;;;;;;;;20.65;28.66;102398.48;103289;1322;62036;-87
2022/03/12 07:33:11;;;;;;;;;;;;;;;20.65;28.58;102396.17;103199;1322;62125;-84
2022/03/12 07:35:46;;;;;;;;;;;;;;;20.65;28.66;102398.11;103195;1323;72702;-85
2022/03/12 07:38:32;;;;;;;;;;;;;;;20.66;28.61;102396.84;103202;1320;75477;-84
2022/03/12 07:41:20;;;;;;;;;;;;;;;;;;;;;
2022/03/12 07:44:07;;;;;;;;;;;;;;;20.66;28.64;102395.91;103356;1322;62101;-79
2022/03/12 07:46:52;;;;;;;;;;;;;;;20.67;28.73;102399.27;103315;1323;72345;-82
2022/03/12 07:49:43;;;;;;;;;;;;;;;20.68;28.63;102399.42;103219;1323;76648;-84
2022/03/12 07:52:11;;;;;;;;;;;;;;;20.68;28.58;102399.07;103217;1322;60815;-79
2022/03/12 07:54:40;;;;;;;;;;;;;;;20.69;28.73;102401.38;103138;1323;62071;-83
2022/03/12 07:57:26;;;;;;;;;;;;;;;20.69;28.67;102403.69;103301;1322;72767;-82
2022/03/12 08:00:10;;;;;;;;;;;;;;;20.69;28.62;102400.30;103583;1316;74726;-84
2022/03/12 08:02:48;;;;;;;;;;;;;;;20.70;28.69;102401.16;104063;1316;62220;-82
2022/03/12 08:05:25;;;;;;;;;;;;;;;20.70;28.57;102400.41;103983;1317;62139;-88
2022/03/12 08:08:13;;;;;;;;;;;;;;;20.71;28.67;102402.70;104212;1308;73872;-85
2022/03/12 08:14:09;;;;;;;;;;;;;;;20.73;28.58;102400.48;104546;1308;63294;-88
2022/03/12 08:16:59;;;;;;;;;;;;;;;;;;;;;
2022/03/12 08:19:26;;;;;;;;;;;;;;;20.73;28.60;102399.58;104621;1308;72756;-84
2022/03/12 08:22:22;;;;;;;;;;;;;;;;;;;;;
2022/03/12 08:25:02;;;;;;;;;;;;;;;;;;;;;
2022/03/12 08:27:54;;;;;;;;;;;;;;;20.75;28.54;102408.11;104165;1314;62207;-84
2022/03/12 08:30:22;;;;;;;;;;;;;;;20.76;28.47;102405.20;104080;1314;73789;-82
2022/03/12 08:33:01;;;;;;;;;;;;;;;20.76;28.58;102408.92;104179;1314;76577;-82
2022/03/12 08:35:47;;;;;;;;;;;;;;;20.77;28.44;102410.32;104193;1315;62134;-82
2022/03/12 08:38:47;;;;;;;;;;;;;;;;;;;;;
2022/03/12 08:41:14;;;;;;;;;;;;;;;20.78;28.66;102404.73;103908;1318;73895;-83
2022/03/12 08:44:05;;;;;;;;;;;;;;;20.79;28.44;102399.88;103958;1318;76949;-85
2022/03/12 08:46:46;;;;;;;;;;;;;;;;;;;;;
2022/03/12 08:49:23;;;;;;;;;;;;;;;20.82;28.39;102406.73;103975;1318;62408;-87
2022/03/12 08:52:13;;;;;;;;;;;;;;;;;;;;;
2022/03/12 08:54:52;;;;;;;;;;;;;;;;;;;;;
2022/03/12 08:57:40;;;;;;;;;;;;;;;20.83;28.41;102414.55;103968;1318;60167;-83
2022/03/12 09:00:21;;;;;;;;;;;;;;;;;;;;;
2022/03/12 09:03:11;;;;;;;;;;;;;;;20.85;28.26;102424.27;104244;1313;72049;-79
2022/03/12 09:05:41;;;;;;;;;;;;;;;20.86;28.46;102418.71;104266;1313;75741;-83
2022/03/12 09:08:26;;;;;;;;;;;;;;;20.86;28.31;102422.80;104325;1313;62123;-85
2022/03/12 09:10:52;;;;;;;;;;;;;;;20.86;28.28;102416.73;104327;1313;62109;-83
2022/03/12 09:13:36;;;;;;;;;;;;;;;20.87;28.34;102410.23;104255;1313;72761;-84
2022/03/12 09:16:22;;;;;;;;;;;;;;;20.87;28.18;102411.68;104337;1309;76604;-83
2022/03/12 09:19:07;;;;;;;;;;;;;;;20.86;28.38;102412.59;104422;1309;62100;-87
2022/03/12 09:21:42;;;;;;;;;;;;;;;20.87;28.32;102418.30;104609;1309;61960;-87
2022/03/12 09:24:10;;;;;;;;;;;;;;;20.87;28.30;102418.63;104465;1309;73718;-84
2022/03/12 09:27:17;;;;;;;;;;;;;;;;;;;;;
2022/03/12 09:30:02;;;;;;;;;;;;;;;20.89;28.22;102411.78;104619;1309;61972;-84
2022/03/12 09:32:49;;;;;;;;;;;;;;;20.90;28.14;102420.47;104496;1309;62115;-85
2022/03/12 09:35:24;;;;;;;;;;;;;;;20.91;28.28;102421.85;104519;1309;73021;-84
2022/03/12 09:37:59;;;;;;;;;;;;;;;20.92;28.11;102415.55;104604;1309;75829;-83
2022/03/12 09:40:41;;;;;;;;;;;;;;;20.94;28.24;102414.41;104497;1308;61999;-85
2022/03/12 09:43:14;;;;;;;;;;;;;;;20.96;28.28;102413.25;104411;1311;61964;-85
2022/03/12 09:45:53;;;;;;;;;;;;;;;;;;;;;
2022/03/12 09:48:47;;;;;;;;;;;;;;;20.99;28.23;102409.00;104429;1310;75610;-82
2022/03/12 09:51:15;;;;;;;;;;;;;;;21.00;28.29;102398.03;104489;1310;61922;-86
2022/03/12 09:53:49;;;;;;;;;;;;;;;21.01;28.33;102402.81;104407;1311;60793;-80
2022/03/12 09:56:22;;;;;;;;;;;;;;;21.02;28.16;102401.67;104350;1311;73930;-83
2022/03/12 09:58:55;;;;;;;;;;;;;;;21.03;28.25;102402.16;104337;1311;63609;-85
2022/03/12 10:01:33;;;;;;;;;;;;;;;21.05;28.06;102399.96;104343;1310;62129;-81
2022/03/12 10:04:26;;;;;;;;;;;;;;;21.04;28.14;102403.00;104435;1309;61979;-82
2022/03/12 10:06:56;;;;;;;;;;;;;;;21.04;28.11;102399.64;104330;1309;73152;-83
2022/03/12 10:09:39;;;;;;;;;;;;;;;21.04;28.17;102392.80;104328;1310;76599;-81
2022/03/12 10:12:10;;;;;;;;;;;;;;;21.05;28.16;102390.42;104250;1311;62196;-82
2022/03/12 10:14:41;;;;;;;;;;;;;;;21.07;28.27;102392.67;104155;1310;62293;-81
2022/03/12 10:17:31;;;;;;;;;;;;;;;21.07;28.07;102388.73;104327;1310;74085;-78
2022/03/12 10:19:55;;;;;;;;;;;;;;;21.08;28.23;102386.38;104332;1309;75460;-84
2022/03/12 10:22:35;;;;;;;;;;;;;;;21.08;28.13;102383.86;104374;1311;62034;-80
2022/03/12 10:25:11;;;;;;;;;;;;;;;21.09;28.15;102384.35;104343;1310;61980;-85
2022/03/12 10:27:57;;;;;;;;;;;;;;;21.10;28.13;102386.80;104360;1311;72786;-83
2022/03/12 10:30:36;;;;;;;;;;;;;;;21.11;28.11;102381.59;104377;1311;76836;-85
2022/03/12 10:33:12;;;;;;;;;;;;;;;21.12;28.07;102377.97;104533;1309;61996;-82
2022/03/12 10:35:58;;;;;;;;;;;;;;;21.12;28.03;102367.38;104479;1310;62096;-82
2022/03/12 10:38:45;;;;;;;;;;;;;;;21.12;27.93;102356.83;104448;1310;72805;-84
2022/03/12 10:41:16;;;;;;;;;;;;;;;21.13;28.01;102356.10;104440;1311;76641;-84
2022/03/12 10:44:01;;;;;;;;;;;;;;;21.12;27.97;102356.63;104421;1311;62120;-84
2022/03/12 10:46:58;;;;;;;;;;;;;;;21.13;28.04;102359.30;104473;1309;62056;-82
2022/03/12 10:49:28;;;;;;;;;;;;;;;21.13;28.01;102350.53;104403;1310;73259;-83
2022/03/12 10:51:59;;;;;;;;;;;;;;;21.12;27.90;102345.02;104509;1308;75683;-86
2022/03/12 10:54:47;;;;;;;;;;;;;;;21.12;28.10;102345.05;104550;1308;62108;-86
2022/03/12 10:57:25;;;;;;;;;;;;;;;21.12;28.13;102341.65;104466;1311;62053;-84
2022/03/12 11:00:09;;;;;;;;;;;;;;;21.11;28.16;102340.59;104504;1308;74228;-87
2022/03/12 11:02:56;;;;;;;;;;;;;;;21.11;28.14;102338.64;104533;1308;75445;-84
2022/03/12 11:05:26;;;;;;;;;;;;;;;21.10;28.10;102334.70;104419;1311;62109;-83
2022/03/12 11:08:30;;;;;;;;;;;;;;;21.10;28.18;102334.88;104440;1309;62188;-84
2022/03/12 11:11:20;;;;;;;;;;;;;;;21.11;28.11;102335.95;104070;1316;72420;-83
2022/03/12 11:14:06;;;;;;;;;;;;;;;21.10;28.09;102328.27;104142;1315;75626;-84
2022/03/12 11:16:41;;;;;;;;;;;;;;;21.11;28.14;102324.48;104159;1316;62016;-83
2022/03/12 11:19:37;;;;;;;;;;;;;;;21.11;28.16;102319.83;103750;1319;62132;-84
2022/03/12 11:22:02;;;;;;;;;;;;;;;21.11;28.05;102313.20;104134;1314;72050;-82
2022/03/12 11:24:55;;;;;;;;;;;;;;;21.10;28.12;102317.17;103356;1321;77533;-84
2022/03/12 11:27:31;;;;;;;;;;;;;;;21.10;28.04;102312.69;103255;1320;62270;-85
2022/03/12 11:30:03;;;;;;;;;;;;;;;21.11;28.09;102312.14;103062;1322;62011;-81
2022/03/12 11:32:40;;;;;;;;;;;;;;;21.11;28.11;102308.17;103181;1321;72647;-84
2022/03/12 11:35:29;;;;;;;;;;;;;;;21.11;28.21;102302.27;103253;1323;76772;-85
2022/03/12 11:37:57;;;;;;;;;;;;;;;21.12;28.16;102299.58;103166;1322;62193;-85
2022/03/12 11:40:51;;;;;;;;;;;;;;;21.12;28.27;102303.47;103152;1323;62218;-83
2022/03/12 11:43:24;;;;;;;;;;;;;;;21.13;28.10;102303.45;103111;1323;73754;-82
2022/03/12 11:45:59;;;;;;;;;;;;;;;21.13;28.18;102305.39;103820;1316;76648;-79
2022/03/12 11:48:28;;;;;;;;;;;;;;;21.14;28.00;102306.98;104107;1316;62410;-82
2022/03/12 11:50:59;;;;;;;;;;;;;;;21.14;28.24;102304.98;104075;1314;62083;-84
2022/03/12 11:53:58;;;;;;;;;;;;;;;;;;;;;
2022/03/12 11:56:34;;;;;;;;;;;;;;;21.15;28.03;102290.28;104116;1315;75757;-82
2022/03/12 11:59:20;;;;;;;;;;;;;;;21.16;28.07;102286.84;103335;1321;62040;-86
2022/03/12 12:01:57;;;;;;;;;;;;;;;21.17;28.10;102280.68;103572;1318;62110;-86
2022/03/12 12:04:39;;;;;;;;;;;;;;;21.18;28.30;102281.36;104143;1316;72915;-85
2022/03/12 12:07:13;;;;;;;;;;;;;;;21.19;28.25;102284.02;104153;1316;75798;-86
2022/03/12 12:10:00;;;;;;;;;;;;;;;21.18;28.10;102284.20;104155;1316;62018;-86
2022/03/12 12:12:36;;;;;;;;;;;;;;;21.19;28.22;102279.34;104152;1315;62013;-84
2022/03/12 12:15:17;;;;;;;;;;;;;;;21.20;28.16;102278.53;104137;1316;73846;-83
2022/03/12 12:17:51;;;;;;;;;;;;;;;21.22;28.12;102277.22;104124;1315;74781;-84
2022/03/12 12:20:18;;;;;;;;;;;;;;;21.24;28.14;102271.23;103898;1317;62024;-85
2022/03/12 12:22:53;;;;;;;;;;;;;;;21.24;28.25;102268.33;103986;1317;62199;-82
2022/03/12 12:25:26;;;;;;;;;;;;;;;21.26;28.09;102271.28;104125;1316;72178;-84
2022/03/12 12:28:17;;;;;;;;;;;;;;;21.27;28.17;102270.35;103911;1316;76179;-81
2022/03/12 12:30:46;;;;;;;;;;;;;;;21.30;28.01;102279.03;103974;1316;62038;-85
2022/03/12 12:33:17;;;;;;;;;;;;;;;21.31;27.88;102271.08;103894;1316;62130;-82
2022/03/12 12:35:59;;;;;;;;;;;;;;;21.33;28.16;102263.29;104131;1316;72682;-83
2022/03/12 12:38:27;;;;;;;;;;;;;;;21.34;28.17;102263.20;104377;1308;74656;-85
2022/03/12 12:41:03;;;;;;;;;;;;;;;21.36;27.90;102260.96;104411;1310;62186;-82
2022/03/12 12:43:42;;;;;;;;;;;;;;;21.37;28.18;102258.22;104423;1311;62200;-85
2022/03/12 12:46:12;;;;;;;;;;;;;;;21.38;28.04;102258.88;104333;1310;72647;-81
2022/03/12 12:49:01;;;;;;;;;;;;;;;21.39;28.10;102259.55;104391;1311;75669;-81
2022/03/12 12:51:26;;;;;;;;;;;;;;;21.39;28.04;102258.85;104437;1308;62132;-83
2022/03/12 12:54:07;;;;;;;;;;;;;;;21.38;28.29;102253.20;104436;1309;62110;-82
2022/03/12 12:56:37;;;;;;;;;;;;;;;21.38;28.19;102251.55;104530;1308;72810;-79
2022/03/12 12:59:20;;;;;;;;;;;;;;;21.38;28.15;102246.92;104489;1308;75495;-81
2022/03/12 13:01:51;;;;;;;;;;;;;;;21.37;28.17;102249.79;104430;1310;62089;-83
2022/03/12 13:04:27;;;;;;;;;;;;;;;21.38;28.24;102249.60;104392;1310;62089;-79
2022/03/12 13:07:22;;;;;;;;;;;;;;;21.37;28.04;102240.11;104421;1311;72786;-84
2022/03/12 13:09:47;;;;;;;;;;;;;;;21.38;28.27;102244.40;104597;1309;76593;-80
2022/03/12 13:12:22;;;;;;;;;;;;;;;21.40;28.21;102240.91;104585;1309;62105;-86
2022/03/12 13:15:08;;;;;;;;;;;;;;;21.41;28.14;102240.30;104456;1308;62146;-85
2022/03/12 13:17:57;;;;;;;;;;;;;;;21.41;28.19;102241.53;104506;1309;73768;-85
2022/03/12 13:20:49;;;;;;;;;;;;;;;21.40;27.99;102233.90;104620;1309;76683;-84
2022/03/12 13:23:28;;;;;;;;;;;;;;;21.40;28.12;102236.23;104209;1314;62805;-87
2022/03/12 13:26:04;;;;;;;;;;;;;;;21.39;28.06;102227.67;104158;1316;62212;-83
2022/03/12 13:28:59;;;;;;;;;;;;;;;21.41;28.13;102231.00;104208;1314;72284;-85
2022/03/12 13:31:35;;;;;;;;;;;;;;;21.40;28.13;102226.70;104199;1314;76898;-83
2022/03/12 13:34:10;;;;;;;;;;;;;;;21.41;28.30;102223.27;104219;1314;62077;-83
2022/03/12 13:36:59;;;;;;;;;;;;;;;21.41;28.09;102229.36;104175;1314;62116;-85
2022/03/12 13:39:36;;;;;;;;;;;;;;;21.41;28.14;102224.73;104210;1314;73887;-84
2022/03/12 13:42:11;;;;;;;;;;;;;;;21.41;28.08;102223.65;104189;1314;77004;-82
2022/03/12 13:44:44;;;;;;;;;;;;;;;21.40;28.23;102218.33;103921;1317;62010;-84
2022/03/12 13:47:25;;;;;;;;;;;;;;;21.39;28.14;102215.88;104199;1314;61953;-83
2022/03/12 13:49:59;;;;;;;;;;;;;;;21.38;28.13;102214.83;104211;1314;72746;-86
2022/03/12 13:52:34;;;;;;;;;;;;;;;21.37;28.14;102211.13;104081;1316;76605;-86
2022/03/12 13:55:00;;;;;;;;;;;;;;;21.36;28.12;102211.19;103972;1317;62083;-81
2022/03/12 13:57:39;;;;;;;;;;;;;;;21.35;28.27;102206.96;103958;1315;62108;-81
2022/03/12 14:00:43;;;;;;;;;;;;;;;21.34;28.27;102211.98;104117;1309;71493;-80
2022/03/12 14:03:14;;;;;;;;;;;;;;;21.34;28.25;102204.31;104464;1309;75615;-83
2022/03/12 14:05:48;;;;;;;;;;;;;;;21.34;28.33;102200.55;104174;1309;62101;-81
2022/03/12 14:08:19;;;;;;;;;;;;;;;21.33;28.38;102197.17;104356;1308;62043;-81
2022/03/12 14:10:54;;;;;;;;;;;;;;;21.33;28.30;102197.70;104248;1308;73279;-83
2022/03/12 14:13:26;;;;;;;;;;;;;;;21.34;28.17;102196.08;104388;1309;76665;-81
2022/03/12 14:15:52;;;;;;;;;;;;;;;21.34;28.21;102193.92;104495;1309;62067;-81
2022/03/12 14:18:24;;;;;;;;;;;;;;;21.33;28.30;102199.33;104440;1309;62137;-84
2022/03/12 14:21:00;;;;;;;;;;;;;;;21.33;28.13;102202.39;104509;1309;72921;-85
2022/03/12 14:23:38;;;;;;;;;;;;;;;21.32;28.29;102195.80;104495;1309;75476;-81
2022/03/12 14:26:04;;;;;;;;;;;;;;;21.32;28.29;102192.58;104622;1308;61961;-84
2022/03/12 14:28:47;;;;;;;;;;;;;;;;;;;;;
2022/03/12 14:31:25;;;;;;;;;;;;;;;21.32;28.36;102191.18;104480;1310;74186;-81
2022/03/12 14:34:05;;;;;;;;;;;;;;;;;;;;;
2022/03/12 14:36:45;;;;;;;;;;;;;;;;;;;;;
2022/03/12 14:39:12;;;;;;;;;;;;;;;21.31;28.19;102187.24;104630;1308;61967;-83
2022/03/12 14:41:57;;;;;;;;;;;;;;;21.31;28.42;102185.10;104435;1309;72840;-84
2022/03/12 14:44:47;;;;;;;;;;;;;;;21.31;28.21;102183.31;104186;1314;75657;-84